KHKA/HKA METAR and TAF weather

Enter ICAO airport designator
Station Type Date Time Source
KHKA METAR 2020/01/26 00:53 UTC NOAA

KHKA 260053Z AUTO 19005KT 10SM CLR 04/01 A3012 RMK AO2 SLP200 T00390006 $


Station Type Date Time Source
KHKA Decoded METAR 2020/01/26 00:53 UTC NOAA

BLYTHEVILLE MUNICIPAL AIRPORT , AR, United States (KHKA) 35-56N 89-50W 78M
Jan 25, 2020 - 07:53 PM EST / 2020.01.26 0053 UTC
Wind: from the S (190 degrees) at 6 MPH (5 KT):0
Visibility: 10 mile(s):0
Sky conditions: clear
Temperature: 39.0 F (3.9 C)
Dew Point: 33.1 F (0.6 C)
Relative Humidity: 79%
Pressure (altimeter): 30.12 in. Hg (1019 hPa)
ob: KHKA 260053Z AUTO 19005KT 10SM CLR 04/01 A3012 RMK AO2 SLP200 T00390006
cycle: 1

Station Type Date Time Source
KHKA TAF UTC NOAA

Error!

Example: see airport list